createdAt,value
2019-03-29T00:02:25.323Z,10.90
2019-03-29T00:05:06.448Z,10.90
2019-03-29T00:07:47.092Z,11.00
2019-03-29T00:10:27.980Z,10.90
2019-03-29T00:13:09.019Z,10.80
2019-03-29T00:15:49.911Z,10.80
2019-03-29T00:18:30.883Z,10.80
2019-03-29T00:21:13.041Z,10.80
2019-03-29T00:24:06.107Z,10.80
2019-03-29T00:26:37.273Z,10.80
2019-03-29T00:29:18.632Z,10.80
2019-03-29T00:31:48.320Z,10.80
2019-03-29T00:34:36.815Z,10.80
2019-03-29T00:37:07.779Z,10.70
2019-03-29T00:39:56.367Z,10.60
2019-03-29T00:42:45.177Z,10.60
2019-03-29T00:45:33.693Z,10.60
2019-03-29T00:48:22.215Z,10.50
2019-03-29T00:51:10.949Z,10.40
2019-03-29T00:53:59.464Z,10.30
2019-03-29T00:56:47.939Z,10.40
2019-03-29T00:59:36.451Z,10.40
2019-03-29T01:02:25.027Z,10.40
2019-03-29T01:05:13.647Z,10.30
2019-03-29T01:08:08.175Z,10.40
2019-03-29T01:10:45.489Z,10.40
2019-03-29T01:16:25.127Z,10.20
2019-03-29T01:19:06.683Z,10.20
2019-03-29T01:22:00.149Z,10.30
2019-03-29T01:24:45.558Z,10.20
2019-03-29T01:27:26.136Z,10.10
2019-03-29T01:30:20.205Z,10.20
2019-03-29T01:34:01.793Z,10.20
2019-03-29T01:38:59.577Z,10.00
2019-03-29T01:41:41.001Z,10.00
2019-03-29T01:44:22.178Z,10.00
2019-03-29T01:47:04.053Z,10.00
2019-03-29T01:49:46.153Z,10.00
2019-03-29T01:52:27.180Z,10.10
2019-03-29T01:55:08.293Z,10.10
2019-03-29T01:57:38.252Z,9.80
2019-03-29T02:00:45.995Z,9.80
2019-03-29T02:03:35.437Z,9.80
2019-03-29T02:06:24.761Z,9.80
2019-03-29T02:09:13.552Z,9.70
2019-03-29T02:12:02.203Z,9.80
2019-03-29T02:14:51.008Z,9.90
2019-03-29T02:17:40.060Z,9.80
2019-03-29T02:20:28.908Z,9.70
2019-03-29T02:23:17.756Z,9.70
2019-03-29T02:26:06.331Z,9.60
2019-03-29T02:28:54.853Z,9.70
2019-03-29T02:31:26.310Z,9.70
2019-03-29T02:34:16.004Z,9.70
2019-03-29T02:36:47.236Z,9.70
2019-03-29T02:39:35.896Z,9.60
2019-03-29T02:42:24.429Z,9.60
2019-03-29T02:45:12.999Z,9.60
2019-03-29T02:48:01.576Z,9.60
2019-03-29T02:50:50.248Z,9.50
2019-03-29T02:53:31.435Z,9.50
2019-03-29T02:56:11.952Z,9.50
2019-03-29T02:58:53.186Z,9.50
2019-03-29T03:01:34.844Z,9.60
2019-03-29T03:04:16.293Z,9.50
2019-03-29T03:06:57.115Z,9.40
2019-03-29T03:09:26.956Z,9.50
2019-03-29T03:12:15.509Z,9.50
2019-03-29T03:15:04.121Z,9.40
2019-03-29T03:17:52.740Z,9.40
2019-03-29T03:20:41.341Z,9.40
2019-03-29T03:23:30.223Z,9.30
2019-03-29T03:26:00.241Z,9.30
2019-03-29T03:28:48.889Z,9.30
2019-03-29T03:31:18.571Z,9.30
2019-03-29T03:33:48.783Z,9.20
2019-03-29T03:36:18.542Z,9.20
2019-03-29T03:39:08.032Z,9.20
2019-03-29T03:41:56.604Z,9.20
2019-03-29T03:44:27.140Z,9.20
2019-03-29T03:47:16.056Z,9.10
2019-03-29T03:49:45.841Z,9.10
2019-03-29T03:52:15.595Z,9.00
2019-03-29T03:55:04.484Z,9.00
2019-03-29T03:57:57.504Z,9.00
2019-03-29T04:00:45.388Z,9.00
2019-03-29T04:03:15.193Z,9.10
2019-03-29T04:05:44.867Z,9.00
2019-03-29T04:08:16.967Z,9.00
2019-03-29T04:11:06.309Z,9.00
2019-03-29T04:13:54.998Z,9.00
2019-03-29T04:16:24.736Z,9.00
2019-03-29T04:18:55.040Z,9.10
2019-03-29T04:21:43.687Z,9.10
2019-03-29T04:24:32.553Z,9.10
2019-03-29T04:27:21.137Z,9.00
2019-03-29T04:30:09.740Z,8.90
2019-03-29T04:32:58.332Z,8.80
2019-03-29T04:35:47.318Z,8.80
2019-03-29T04:38:36.252Z,8.80
2019-03-29T05:19:15.534Z,8.50
2019-03-29T05:28:00.550Z,8.60
2019-03-29T05:42:20.387Z,8.40
2019-03-29T06:00:06.478Z,8.70
2019-03-29T06:03:10.483Z,8.70
2019-03-29T06:05:51.568Z,8.70
2019-03-29T06:11:32.327Z,8.80
2019-03-29T06:17:03.631Z,9.10
2019-03-29T06:19:45.198Z,9.20
2019-03-29T06:22:27.065Z,9.40
2019-03-29T06:25:08.443Z,9.50
2019-03-29T06:27:49.671Z,9.60
2019-03-29T06:30:30.657Z,9.70
2019-03-29T06:33:12.100Z,9.90
2019-03-29T06:35:53.784Z,10.30
2019-03-29T06:41:29.583Z,12.10
2019-03-29T06:58:42.360Z,14.10
2019-03-29T07:04:20.095Z,14.00
2019-03-29T07:07:01.605Z,14.20
2019-03-29T07:09:42.183Z,14.20
2019-03-29T07:12:23.855Z,14.50
2019-03-29T07:15:05.173Z,14.60
2019-03-29T07:17:46.419Z,14.60
2019-03-29T07:20:28.372Z,14.80
2019-03-29T07:23:09.995Z,15.20
2019-03-29T07:25:51.202Z,15.50
2019-03-29T07:28:32.024Z,15.80
2019-03-29T07:31:13.271Z,16.10
2019-03-29T07:33:54.589Z,16.20
2019-03-29T07:36:35.359Z,16.50
2019-03-29T07:39:16.067Z,16.90
2019-03-29T07:41:56.827Z,17.40
2019-03-29T07:44:37.759Z,17.70
2019-03-29T07:47:19.096Z,18.00
2019-03-29T07:49:59.830Z,18.10
2019-03-29T07:52:41.556Z,17.60
2019-03-29T07:55:22.344Z,17.50
2019-03-29T07:58:03.210Z,17.60
2019-03-29T08:00:44.101Z,17.80
2019-03-29T08:03:24.663Z,18.00
2019-03-29T08:06:06.342Z,18.10
2019-03-29T08:08:47.767Z,18.10
2019-03-29T08:11:28.475Z,17.80
2019-03-29T08:14:09.447Z,17.70
2019-03-29T08:16:50.251Z,17.10
2019-03-29T08:19:31.641Z,16.30
2019-03-29T08:22:12.710Z,16.50
2019-03-29T08:24:53.969Z,17.00
2019-03-29T08:27:24.099Z,17.10
2019-03-29T08:30:12.970Z,17.50
2019-03-29T08:33:01.605Z,17.20
2019-03-29T08:35:50.087Z,16.70
2019-03-29T08:38:38.593Z,16.60
2019-03-29T08:41:27.382Z,16.90
2019-03-29T08:44:15.955Z,17.00
2019-03-29T08:47:04.747Z,17.40
2019-03-29T08:49:53.230Z,17.20
2019-03-29T08:52:41.758Z,17.70
2019-03-29T08:55:45.210Z,17.80
2019-03-29T08:58:22.233Z,17.50
2019-03-29T09:00:51.971Z,18.00
2019-03-29T09:03:40.471Z,18.40
2019-03-29T09:06:30.329Z,18.50
2019-03-29T09:09:19.511Z,18.90
2019-03-29T09:12:14.333Z,18.80
2019-03-29T09:14:58.544Z,18.60
2019-03-29T09:17:47.057Z,19.20
2019-03-29T09:20:35.634Z,19.60
2019-03-29T09:23:24.132Z,20.00
2019-03-29T09:26:12.971Z,19.90
2019-03-29T09:29:01.463Z,20.00
2019-03-29T09:31:49.968Z,19.10
2019-03-29T09:34:38.446Z,18.10
2019-03-29T09:37:26.943Z,17.40
2019-03-29T09:40:15.542Z,16.90
2019-03-29T09:43:08.009Z,16.90
2019-03-29T09:45:54.253Z,16.80
2019-03-29T09:48:42.747Z,16.30
2019-03-29T09:51:31.251Z,16.20
2019-03-29T09:54:20.491Z,15.90
2019-03-29T09:57:14.896Z,15.60
2019-03-29T10:00:00.389Z,15.60
2019-03-29T10:02:50.699Z,15.70
2019-03-29T10:05:39.192Z,15.80
2019-03-29T10:08:28.023Z,15.80
2019-03-29T10:11:16.599Z,15.70
2019-03-29T10:14:05.392Z,15.70
2019-03-29T10:16:53.894Z,15.70
2019-03-29T10:19:42.407Z,15.60
2019-03-29T10:22:30.880Z,15.40
2019-03-29T10:25:02.547Z,15.20
2019-03-29T10:27:51.150Z,14.90
2019-03-29T10:30:40.377Z,14.70
2019-03-29T10:33:29.159Z,14.80
2019-03-29T10:36:17.661Z,15.00
2019-03-29T10:42:39.874Z,15.20
2019-03-29T10:45:26.768Z,15.40
2019-03-29T10:48:15.619Z,15.40
2019-03-29T10:51:04.375Z,15.50
2019-03-29T10:53:52.863Z,15.60
2019-03-29T10:56:33.325Z,15.50
2019-03-29T10:59:26.305Z,15.30
2019-03-29T11:01:44.835Z,15.10
2019-03-29T11:04:33.599Z,15.30
2019-03-29T11:07:22.398Z,16.00
2019-03-29T11:10:31.991Z,16.60
2019-03-29T11:13:20.799Z,16.70
2019-03-29T11:16:09.575Z,16.80
2019-03-29T11:18:58.082Z,17.30
2019-03-29T11:21:27.841Z,17.40
2019-03-29T11:24:16.633Z,17.90
2019-03-29T11:27:05.210Z,18.20
2019-03-29T11:29:54.544Z,18.20
2019-03-29T11:32:43.629Z,18.90
2019-03-29T11:35:32.105Z,19.00
2019-03-29T11:38:20.607Z,19.40
2019-03-29T11:41:09.346Z,19.60
2019-03-29T11:43:57.907Z,19.80
2019-03-29T11:46:46.428Z,19.90
2019-03-29T11:49:35.216Z,20.00
2019-03-29T11:52:23.983Z,19.60
2019-03-29T11:55:12.822Z,19.80
2019-03-29T11:57:55.884Z,20.10
2019-03-29T12:00:36.389Z,20.20
2019-03-29T12:03:17.343Z,20.20
2019-03-29T12:05:58.700Z,20.20
2019-03-29T12:08:39.383Z,20.50
2019-03-29T12:11:20.018Z,20.40
2019-03-29T12:14:01.217Z,20.60
2019-03-29T12:16:42.590Z,20.20
2019-03-29T12:19:23.182Z,20.40
2019-03-29T12:22:04.202Z,20.80
2019-03-29T12:24:44.816Z,20.90
2019-03-29T12:27:25.555Z,20.90
2019-03-29T12:30:06.183Z,20.80
2019-03-29T12:32:47.207Z,20.80
2019-03-29T12:35:28.549Z,20.90
2019-03-29T12:38:09.363Z,21.00
2019-03-29T12:40:50.240Z,21.00
2019-03-29T12:43:31.100Z,20.00
2019-03-29T12:46:11.627Z,19.30
2019-03-29T12:48:52.995Z,19.50
2019-03-29T12:51:33.845Z,19.80
2019-03-29T12:54:03.537Z,19.90
2019-03-29T12:56:44.719Z,19.90
2019-03-29T12:59:26.155Z,19.70
2019-03-29T13:02:06.992Z,19.80
2019-03-29T13:04:47.549Z,19.90
2019-03-29T13:07:28.685Z,19.90
2019-03-29T13:10:09.843Z,20.00
2019-03-29T13:12:51.157Z,20.20
2019-03-29T13:15:31.586Z,20.20
2019-03-29T13:18:12.534Z,20.10
2019-03-29T13:20:54.049Z,20.10
2019-03-29T13:23:35.356Z,20.10
2019-03-29T13:26:16.495Z,20.00
2019-03-29T13:28:57.420Z,19.60
2019-03-29T13:31:38.050Z,19.70
2019-03-29T13:34:18.901Z,19.80
2019-03-29T13:36:59.736Z,19.90
2019-03-29T13:39:40.496Z,19.80
2019-03-29T13:42:21.487Z,19.80
2019-03-29T13:45:02.307Z,18.90
2019-03-29T13:47:42.800Z,18.60
2019-03-29T13:50:23.143Z,18.60
2019-03-29T13:53:04.808Z,18.70
2019-03-29T13:55:46.154Z,18.80
2019-03-29T13:58:27.522Z,19.10
2019-03-29T14:01:08.204Z,19.20
2019-03-29T14:03:48.939Z,19.20
2019-03-29T14:06:30.047Z,18.80
2019-03-29T14:09:10.948Z,18.90
2019-03-29T14:11:51.980Z,19.10
2019-03-29T14:14:38.574Z,18.90
2019-03-29T14:17:15.583Z,19.00
2019-03-29T14:19:56.337Z,18.90
2019-03-29T14:22:37.227Z,19.00
2019-03-29T14:25:18.751Z,19.00
2019-03-29T14:27:59.188Z,19.20
2019-03-29T14:30:40.192Z,19.20
2019-03-29T14:33:21.142Z,19.20
2019-03-29T14:36:01.792Z,19.00
2019-03-29T14:38:42.571Z,19.00
2019-03-29T14:41:23.501Z,19.00
2019-03-29T14:44:04.397Z,19.10
2019-03-29T14:46:45.461Z,19.20
2019-03-29T14:49:26.312Z,19.00
2019-03-29T14:52:07.002Z,19.00
2019-03-29T14:54:47.778Z,18.80
2019-03-29T14:57:28.807Z,19.00
2019-03-29T15:00:10.247Z,19.20
2019-03-29T15:02:51.867Z,19.30
2019-03-29T15:05:33.459Z,19.40
2019-03-29T15:08:14.017Z,19.30
2019-03-29T15:10:55.076Z,19.40
2019-03-29T15:13:35.567Z,19.40
2019-03-29T15:16:16.916Z,19.50
2019-03-29T15:18:58.369Z,19.50
2019-03-29T15:21:39.127Z,19.40
2019-03-29T15:24:20.190Z,19.40
2019-03-29T15:27:01.103Z,19.40
2019-03-29T15:29:42.352Z,19.40
2019-03-29T15:32:23.359Z,19.30
2019-03-29T15:34:53.022Z,19.30
2019-03-29T15:37:22.728Z,19.30
2019-03-29T15:40:11.315Z,19.30
2019-03-29T15:42:59.811Z,19.40
2019-03-29T15:45:48.562Z,19.40
2019-03-29T15:48:37.326Z,19.30
2019-03-29T15:51:25.866Z,19.20
2019-03-29T15:53:55.783Z,19.00
2019-03-29T15:56:25.495Z,18.90
2019-03-29T15:59:06.639Z,18.60
2019-03-29T16:01:47.135Z,18.60
2019-03-29T16:04:28.083Z,18.50
2019-03-29T16:07:09.411Z,18.50
2019-03-29T16:09:50.462Z,18.50
2019-03-29T16:12:31.767Z,18.50
2019-03-29T16:15:01.464Z,18.50
2019-03-29T16:17:50.012Z,18.60
2019-03-29T16:20:38.523Z,18.50
2019-03-29T16:23:27.270Z,18.50
2019-03-29T16:26:15.763Z,18.50
2019-03-29T16:29:04.500Z,18.40
2019-03-29T16:31:52.998Z,18.20
2019-03-29T16:34:41.481Z,18.00
2019-03-29T16:37:30.236Z,18.00
2019-03-29T16:40:18.963Z,18.00
2019-03-29T16:43:07.475Z,18.00
2019-03-29T16:45:55.975Z,17.80
2019-03-29T16:48:44.737Z,17.70
2019-03-29T16:51:33.215Z,17.70
2019-03-29T16:54:21.890Z,17.70
2019-03-29T16:56:51.682Z,17.60
2019-03-29T16:59:40.178Z,17.60
2019-03-29T17:02:21.803Z,17.60
2019-03-29T17:05:03.158Z,17.60
2019-03-29T17:07:43.843Z,17.50
2019-03-29T17:10:24.775Z,17.50
2019-03-29T17:13:05.734Z,17.50
2019-03-29T17:16:00.803Z,17.50
2019-03-29T17:18:29.811Z,17.40
2019-03-29T17:21:10.839Z,17.30
2019-03-29T17:23:52.812Z,17.30
2019-03-29T17:26:34.156Z,17.30
2019-03-29T17:29:14.687Z,17.20
2019-03-29T17:31:55.219Z,17.30
2019-03-29T17:34:36.618Z,17.20
2019-03-29T17:37:18.131Z,17.10
2019-03-29T17:39:58.651Z,17.00
2019-03-29T17:42:39.325Z,16.90
2019-03-29T17:45:20.015Z,16.90
2019-03-29T17:48:00.483Z,16.90
2019-03-29T17:50:41.055Z,16.80
2019-03-29T17:53:22.273Z,16.80
2019-03-29T17:56:03.612Z,16.80
2019-03-29T17:58:44.894Z,16.70
2019-03-29T18:01:14.655Z,16.60
2019-03-29T18:04:03.427Z,16.60
2019-03-29T18:06:52.010Z,16.50
2019-03-29T18:09:40.843Z,16.50
2019-03-29T18:12:29.588Z,16.40
2019-03-29T18:15:18.630Z,16.30
2019-03-29T18:18:07.498Z,16.20
2019-03-29T18:20:55.986Z,16.20
2019-03-29T18:23:44.523Z,16.20
2019-03-29T18:26:33.024Z,16.10
2019-03-29T18:29:21.596Z,16.00
2019-03-29T18:32:10.467Z,15.90
2019-03-29T18:34:58.947Z,15.80
2019-03-29T18:37:47.727Z,15.80
2019-03-29T18:40:36.295Z,15.80
2019-03-29T18:43:25.076Z,15.60
2019-03-29T18:46:13.600Z,15.50
2019-03-29T18:49:02.447Z,15.40
2019-03-29T18:51:50.943Z,15.40
2019-03-29T18:54:39.447Z,15.30
2019-03-29T18:57:27.967Z,15.20
2019-03-29T19:00:36.952Z,15.20
2019-03-29T19:03:18.103Z,15.20
2019-03-29T19:05:59.447Z,15.10
2019-03-29T19:08:39.915Z,15.10
2019-03-29T19:11:20.827Z,15.00
2019-03-29T19:14:01.710Z,15.00
2019-03-29T19:16:42.570Z,14.90
2019-03-29T19:19:23.236Z,14.90
2019-03-29T19:22:04.223Z,14.80
2019-03-29T19:24:45.185Z,14.80
2019-03-29T19:27:25.728Z,14.80
2019-03-29T19:30:06.231Z,14.80
2019-03-29T19:32:47.558Z,14.70
2019-03-29T19:35:29.475Z,14.60
2019-03-29T19:38:10.040Z,14.60
2019-03-29T19:40:49.718Z,14.50
2019-03-29T19:43:38.229Z,14.50
2019-03-29T19:46:26.703Z,14.50
2019-03-29T19:49:15.498Z,14.40
2019-03-29T19:52:04.238Z,14.40
2019-03-29T19:54:52.867Z,14.40
2019-03-29T19:57:41.484Z,14.30
2019-03-29T20:00:22.627Z,14.30
2019-03-29T20:02:52.443Z,14.30
2019-03-29T20:05:41.223Z,14.30
2019-03-29T20:08:30.030Z,14.30
2019-03-29T20:11:18.584Z,14.20
2019-03-29T20:14:07.111Z,14.10
2019-03-29T20:16:55.604Z,14.10
2019-03-29T20:19:44.145Z,14.10
2019-03-29T20:22:32.743Z,14.00
2019-03-29T20:25:21.220Z,14.10
2019-03-29T20:28:09.835Z,14.10
2019-03-29T20:30:58.330Z,14.10
2019-03-29T20:33:47.445Z,14.10
2019-03-29T20:36:36.215Z,14.10
2019-03-29T20:39:24.702Z,14.00
2019-03-29T20:42:13.240Z,14.00
2019-03-29T20:44:42.885Z,13.90
2019-03-29T20:47:12.580Z,13.80
2019-03-29T20:55:36.953Z,13.90
2019-03-29T20:58:25.716Z,13.80
2019-03-29T21:01:14.183Z,13.60
2019-03-29T21:03:55.582Z,13.60
2019-03-29T21:06:36.035Z,13.60
2019-03-29T21:09:16.804Z,13.50
2019-03-29T21:11:57.740Z,13.50
2019-03-29T21:14:39.306Z,13.40
2019-03-29T21:17:20.408Z,13.30
2019-03-29T21:20:01.323Z,13.30
2019-03-29T21:22:42.978Z,13.30
2019-03-29T21:25:24.563Z,13.30
2019-03-29T21:28:05.683Z,13.30
2019-03-29T21:30:46.407Z,13.20
2019-03-29T21:33:27.206Z,13.20
2019-03-29T21:36:08.511Z,13.10
2019-03-29T21:38:49.255Z,13.20
2019-03-29T21:41:30.064Z,13.20
2019-03-29T21:44:11.273Z,13.20
2019-03-29T21:46:53.271Z,13.20
2019-03-29T21:49:34.052Z,13.10
2019-03-29T21:52:15.726Z,13.10
2019-03-29T21:54:45.419Z,13.10
2019-03-29T21:57:34.256Z,13.10
2019-03-29T22:00:22.743Z,13.10
2019-03-29T22:03:03.823Z,13.00
2019-03-29T22:05:44.968Z,13.00
2019-03-29T22:08:25.881Z,13.00
2019-03-29T22:11:07.038Z,12.90
2019-03-29T22:13:48.168Z,12.90
2019-03-29T22:16:28.799Z,12.90
2019-03-29T22:19:09.870Z,12.90
2019-03-29T22:21:50.955Z,12.90
2019-03-29T22:24:31.406Z,12.90
2019-03-29T22:27:12.446Z,12.90
2019-03-29T22:29:52.903Z,12.80
2019-03-29T22:32:34.227Z,12.80
2019-03-29T22:35:14.920Z,12.80
2019-03-29T22:37:56.390Z,12.80
2019-03-29T22:40:26.107Z,12.80
2019-03-29T22:43:14.848Z,12.70
2019-03-29T22:46:03.348Z,12.70
2019-03-29T22:48:53.443Z,12.70
2019-03-29T22:51:42.595Z,12.80
2019-03-29T22:54:31.131Z,12.70
2019-03-29T22:57:20.466Z,12.70
2019-03-29T23:03:17.611Z,12.60
2019-03-29T23:05:58.522Z,12.60
2019-03-29T23:08:40.295Z,12.60
2019-03-29T23:11:20.913Z,12.60
2019-03-29T23:14:01.765Z,12.70
2019-03-29T23:16:42.286Z,12.60
2019-03-29T23:19:23.045Z,12.60
2019-03-29T23:22:03.043Z,12.60
2019-03-29T23:24:51.665Z,12.60
2019-03-29T23:27:40.762Z,12.60
2019-03-29T23:30:29.267Z,12.60
2019-03-29T23:33:18.049Z,12.60
2019-03-29T23:36:06.583Z,12.70
2019-03-29T23:38:55.063Z,12.60
2019-03-29T23:41:43.899Z,12.60
2019-03-29T23:44:32.459Z,12.60
2019-03-29T23:47:20.971Z,12.60
2019-03-29T23:50:09.695Z,12.50
2019-03-29T23:52:58.283Z,12.50
2019-03-29T23:55:47.200Z,12.50
2019-03-29T23:58:35.738Z,12.50
